sensor_id;sensor_type;location;lat;lon;timestamp;P1;durP1;ratioP1;P2;durP2;ratioP2
24631;SDS011;59977;48.782;9.190;2023-03-12T00:00:18;13.82;;;4.18;;
24631;SDS011;59977;48.782;9.190;2023-03-12T00:02:44;17.88;;;3.85;;
24631;SDS011;59977;48.782;9.190;2023-03-12T00:05:10;17.27;;;4.88;;
24631;SDS011;59977;48.782;9.190;2023-03-12T00:07:36;12.98;;;3.70;;
24631;SDS011;59977;48.782;9.190;2023-03-12T00:10:03;15.93;;;4.25;;
24631;SDS011;59977;48.782;9.190;2023-03-12T00:12:29;24.70;;;4.85;;
24631;SDS011;59977;48.782;9.190;2023-03-12T00:14:55;17.33;;;4.70;;
24631;SDS011;59977;48.782;9.190;2023-03-12T00:17:21;16.23;;;4.05;;
24631;SDS011;59977;48.782;9.190;2023-03-12T00:19:51;16.27;;;4.68;;
24631;SDS011;59977;48.782;9.190;2023-03-12T00:22:17;11.80;;;3.95;;
24631;SDS011;59977;48.782;9.190;2023-03-12T00:24:48;12.18;;;4.50;;
24631;SDS011;59977;48.782;9.190;2023-03-12T00:27:14;17.77;;;3.97;;
24631;SDS011;59977;48.782;9.190;2023-03-12T00:29:40;10.90;;;3.50;;
24631;SDS011;59977;48.782;9.190;2023-03-12T00:32:06;15.55;;;3.95;;
24631;SDS011;59977;48.782;9.190;2023-03-12T00:34:32;10.52;;;4.03;;
24631;SDS011;59977;48.782;9.190;2023-03-12T00:36:58;13.27;;;4.47;;
24631;SDS011;59977;48.782;9.190;2023-03-12T00:39:24;14.20;;;3.83;;
24631;SDS011;59977;48.782;9.190;2023-03-12T00:41:50;19.48;;;4.20;;
24631;SDS011;59977;48.782;9.190;2023-03-12T00:44:16;16.00;;;5.03;;
24631;SDS011;59977;48.782;9.190;2023-03-12T00:46:42;13.55;;;4.70;;
24631;SDS011;59977;48.782;9.190;2023-03-12T00:49:08;21.27;;;5.05;;
24631;SDS011;59977;48.782;9.190;2023-03-12T00:51:35;12.32;;;4.65;;
24631;SDS011;59977;48.782;9.190;2023-03-12T00:54:01;9.10;;;4.55;;
24631;SDS011;59977;48.782;9.190;2023-03-12T00:56:27;16.10;;;6.13;;
24631;SDS011;59977;48.782;9.190;2023-03-12T00:58:53;17.67;;;5.43;;
24631;SDS011;59977;48.782;9.190;2023-03-12T01:01:19;17.90;;;5.63;;
24631;SDS011;59977;48.782;9.190;2023-03-12T01:03:45;20.35;;;5.32;;
24631;SDS011;59977;48.782;9.190;2023-03-12T01:06:11;18.45;;;5.45;;
24631;SDS011;59977;48.782;9.190;2023-03-12T01:08:37;18.38;;;4.95;;
24631;SDS011;59977;48.782;9.190;2023-03-12T01:11:03;17.75;;;5.18;;
24631;SDS011;59977;48.782;9.190;2023-03-12T01:13:30;15.30;;;5.28;;
24631;SDS011;59977;48.782;9.190;2023-03-12T01:15:56;12.23;;;4.68;;
24631;SDS011;59977;48.782;9.190;2023-03-12T01:18:22;15.20;;;4.97;;
24631;SDS011;59977;48.782;9.190;2023-03-12T01:20:48;13.30;;;4.65;;
24631;SDS011;59977;48.782;9.190;2023-03-12T01:23:14;12.93;;;5.03;;
24631;SDS011;59977;48.782;9.190;2023-03-12T01:25:40;13.60;;;5.65;;
24631;SDS011;59977;48.782;9.190;2023-03-12T01:28:06;11.73;;;5.00;;
24631;SDS011;59977;48.782;9.190;2023-03-12T01:30:32;17.27;;;5.43;;
24631;SDS011;59977;48.782;9.190;2023-03-12T01:32:58;12.05;;;4.38;;
24631;SDS011;59977;48.782;9.190;2023-03-12T01:35:25;15.55;;;5.55;;
24631;SDS011;59977;48.782;9.190;2023-03-12T01:37:51;20.67;;;5.72;;
24631;SDS011;59977;48.782;9.190;2023-03-12T01:40:18;15.93;;;5.30;;
24631;SDS011;59977;48.782;9.190;2023-03-12T01:42:54;12.02;;;5.07;;
24631;SDS011;59977;48.782;9.190;2023-03-12T01:48:05;18.40;;;5.10;;
24631;SDS011;59977;48.782;9.190;2023-03-12T01:50:31;12.27;;;5.03;;
24631;SDS011;59977;48.782;9.190;2023-03-12T01:52:57;14.68;;;5.65;;
24631;SDS011;59977;48.782;9.190;2023-03-12T01:55:23;15.55;;;5.38;;
24631;SDS011;59977;48.782;9.190;2023-03-12T01:57:50;13.93;;;5.30;;
24631;SDS011;59977;48.782;9.190;2023-03-12T02:00:18;20.42;;;4.90;;
24631;SDS011;59977;48.782;9.190;2023-03-12T02:02:46;13.05;;;4.95;;
24631;SDS011;59977;48.782;9.190;2023-03-12T02:05:16;11.52;;;4.95;;
24631;SDS011;59977;48.782;9.190;2023-03-12T02:07:45;13.27;;;5.65;;
24631;SDS011;59977;48.782;9.190;2023-03-12T02:10:11;17.98;;;5.28;;
24631;SDS011;59977;48.782;9.190;2023-03-12T02:12:37;17.33;;;5.70;;
24631;SDS011;59977;48.782;9.190;2023-03-12T02:15:03;17.13;;;5.28;;
24631;SDS011;59977;48.782;9.190;2023-03-12T02:17:30;16.05;;;5.43;;
24631;SDS011;59977;48.782;9.190;2023-03-12T02:19:59;11.10;;;5.22;;
24631;SDS011;59977;48.782;9.190;2023-03-12T02:22:32;15.55;;;5.70;;
24631;SDS011;59977;48.782;9.190;2023-03-12T02:25:01;19.17;;;5.95;;
24631;SDS011;59977;48.782;9.190;2023-03-12T02:27:31;13.65;;;5.47;;
24631;SDS011;59977;48.782;9.190;2023-03-12T02:29:58;15.60;;;5.95;;
24631;SDS011;59977;48.782;9.190;2023-03-12T02:32:25;15.68;;;5.82;;
24631;SDS011;59977;48.782;9.190;2023-03-12T02:34:53;12.23;;;5.38;;
24631;SDS011;59977;48.782;9.190;2023-03-12T02:37:20;15.38;;;5.35;;
24631;SDS011;59977;48.782;9.190;2023-03-12T02:39:49;15.55;;;5.35;;
24631;SDS011;59977;48.782;9.190;2023-03-12T02:42:16;17.13;;;5.20;;
24631;SDS011;59977;48.782;9.190;2023-03-12T02:44:42;16.05;;;5.68;;
24631;SDS011;59977;48.782;9.190;2023-03-12T02:47:08;14.63;;;5.07;;
24631;SDS011;59977;48.782;9.190;2023-03-12T02:49:34;14.40;;;4.90;;
24631;SDS011;59977;48.782;9.190;2023-03-12T02:52:00;14.70;;;4.97;;
24631;SDS011;59977;48.782;9.190;2023-03-12T02:54:27;18.15;;;5.07;;
24631;SDS011;59977;48.782;9.190;2023-03-12T02:56:53;14.40;;;5.60;;
24631;SDS011;59977;48.782;9.190;2023-03-12T02:59:19;14.25;;;5.60;;
24631;SDS011;59977;48.782;9.190;2023-03-12T03:01:46;18.10;;;5.72;;
24631;SDS011;59977;48.782;9.190;2023-03-12T03:04:12;16.30;;;6.43;;
24631;SDS011;59977;48.782;9.190;2023-03-12T03:06:39;17.25;;;6.45;;
24631;SDS011;59977;48.782;9.190;2023-03-12T03:09:05;15.27;;;5.97;;
24631;SDS011;59977;48.782;9.190;2023-03-12T03:11:31;13.98;;;6.20;;
24631;SDS011;59977;48.782;9.190;2023-03-12T03:13:57;14.02;;;5.82;;
24631;SDS011;59977;48.782;9.190;2023-03-12T03:16:23;21.15;;;5.78;;
24631;SDS011;59977;48.782;9.190;2023-03-12T03:18:49;21.95;;;6.47;;
24631;SDS011;59977;48.782;9.190;2023-03-12T03:21:16;15.80;;;6.22;;
24631;SDS011;59977;48.782;9.190;2023-03-12T03:23:42;16.50;;;6.30;;
24631;SDS011;59977;48.782;9.190;2023-03-12T03:26:08;13.00;;;5.55;;
24631;SDS011;59977;48.782;9.190;2023-03-12T03:28:34;18.23;;;6.00;;
24631;SDS011;59977;48.782;9.190;2023-03-12T03:31:00;15.98;;;5.00;;
24631;SDS011;59977;48.782;9.190;2023-03-12T03:33:27;18.27;;;6.07;;
24631;SDS011;59977;48.782;9.190;2023-03-12T03:35:54;16.77;;;6.47;;
24631;SDS011;59977;48.782;9.190;2023-03-12T03:38:20;15.82;;;6.13;;
24631;SDS011;59977;48.782;9.190;2023-03-12T03:40:46;18.35;;;6.35;;
24631;SDS011;59977;48.782;9.190;2023-03-12T03:43:12;14.70;;;5.45;;
24631;SDS011;59977;48.782;9.190;2023-03-12T03:45:38;21.00;;;6.13;;
24631;SDS011;59977;48.782;9.190;2023-03-12T03:48:04;13.35;;;6.38;;
24631;SDS011;59977;48.782;9.190;2023-03-12T03:50:30;12.90;;;5.88;;
24631;SDS011;59977;48.782;9.190;2023-03-12T03:52:56;12.27;;;5.43;;
24631;SDS011;59977;48.782;9.190;2023-03-12T03:55:22;18.05;;;5.72;;
24631;SDS011;59977;48.782;9.190;2023-03-12T03:57:49;20.77;;;6.28;;
24631;SDS011;59977;48.782;9.190;2023-03-12T04:00:15;13.75;;;5.68;;
24631;SDS011;59977;48.782;9.190;2023-03-12T04:02:42;14.77;;;5.57;;
24631;SDS011;59977;48.782;9.190;2023-03-12T04:05:09;13.35;;;5.97;;
24631;SDS011;59977;48.782;9.190;2023-03-12T04:07:35;21.42;;;5.70;;
24631;SDS011;59977;48.782;9.190;2023-03-12T04:10:01;22.00;;;6.30;;
24631;SDS011;59977;48.782;9.190;2023-03-12T04:12:27;16.30;;;5.72;;
24631;SDS011;59977;48.782;9.190;2023-03-12T04:14:53;20.95;;;6.68;;
24631;SDS011;59977;48.782;9.190;2023-03-12T04:17:19;26.08;;;7.80;;
24631;SDS011;59977;48.782;9.190;2023-03-12T04:19:45;12.70;;;5.85;;
24631;SDS011;59977;48.782;9.190;2023-03-12T04:22:11;16.88;;;6.03;;
24631;SDS011;59977;48.782;9.190;2023-03-12T04:24:38;13.63;;;5.93;;
24631;SDS011;59977;48.782;9.190;2023-03-12T04:27:04;17.02;;;6.05;;
24631;SDS011;59977;48.782;9.190;2023-03-12T04:29:30;12.98;;;5.65;;
24631;SDS011;59977;48.782;9.190;2023-03-12T04:31:55;12.95;;;4.95;;
24631;SDS011;59977;48.782;9.190;2023-03-12T04:34:21;13.85;;;5.65;;
24631;SDS011;59977;48.782;9.190;2023-03-12T04:36:47;15.88;;;5.63;;
24631;SDS011;59977;48.782;9.190;2023-03-12T04:39:17;10.65;;;4.90;;
24631;SDS011;59977;48.782;9.190;2023-03-12T04:41:43;14.93;;;5.50;;
24631;SDS011;59977;48.782;9.190;2023-03-12T04:44:10;14.45;;;5.10;;
24631;SDS011;59977;48.782;9.190;2023-03-12T04:46:36;10.30;;;5.35;;
24631;SDS011;59977;48.782;9.190;2023-03-12T04:49:02;14.68;;;5.80;;
24631;SDS011;59977;48.782;9.190;2023-03-12T04:51:28;15.75;;;5.40;;
24631;SDS011;59977;48.782;9.190;2023-03-12T04:53:54;17.02;;;5.55;;
24631;SDS011;59977;48.782;9.190;2023-03-12T04:56:20;13.98;;;5.95;;
24631;SDS011;59977;48.782;9.190;2023-03-12T04:58:46;18.25;;;5.65;;
24631;SDS011;59977;48.782;9.190;2023-03-12T05:01:18;12.60;;;5.53;;
24631;SDS011;59977;48.782;9.190;2023-03-12T05:03:46;14.93;;;5.45;;
24631;SDS011;59977;48.782;9.190;2023-03-12T05:06:12;14.65;;;5.20;;
24631;SDS011;59977;48.782;9.190;2023-03-12T05:08:38;15.55;;;5.90;;
24631;SDS011;59977;48.782;9.190;2023-03-12T05:11:04;14.23;;;5.25;;
24631;SDS011;59977;48.782;9.190;2023-03-12T05:13:31;14.20;;;5.25;;
24631;SDS011;59977;48.782;9.190;2023-03-12T05:15:57;14.75;;;5.25;;
24631;SDS011;59977;48.782;9.190;2023-03-12T05:18:23;12.82;;;5.28;;
24631;SDS011;59977;48.782;9.190;2023-03-12T05:20:57;14.55;;;5.45;;
24631;SDS011;59977;48.782;9.190;2023-03-12T05:23:23;10.25;;;4.88;;
24631;SDS011;59977;48.782;9.190;2023-03-12T05:25:49;14.95;;;5.45;;
24631;SDS011;59977;48.782;9.190;2023-03-12T05:28:15;15.05;;;5.30;;
24631;SDS011;59977;48.782;9.190;2023-03-12T05:30:41;15.32;;;5.43;;
24631;SDS011;59977;48.782;9.190;2023-03-12T05:33:07;14.23;;;5.20;;
24631;SDS011;59977;48.782;9.190;2023-03-12T05:35:33;11.63;;;5.05;;
24631;SDS011;59977;48.782;9.190;2023-03-12T05:37:59;17.30;;;5.40;;
24631;SDS011;59977;48.782;9.190;2023-03-12T05:40:25;19.83;;;5.40;;
24631;SDS011;59977;48.782;9.190;2023-03-12T05:42:52;16.83;;;6.38;;
24631;SDS011;59977;48.782;9.190;2023-03-12T05:45:17;10.65;;;4.88;;
24631;SDS011;59977;48.782;9.190;2023-03-12T05:47:43;14.02;;;5.15;;
24631;SDS011;59977;48.782;9.190;2023-03-12T05:50:10;8.85;;;4.68;;
24631;SDS011;59977;48.782;9.190;2023-03-12T05:52:36;15.35;;;4.75;;
24631;SDS011;59977;48.782;9.190;2023-03-12T05:55:02;13.00;;;4.35;;
24631;SDS011;59977;48.782;9.190;2023-03-12T05:57:28;10.77;;;5.30;;
24631;SDS011;59977;48.782;9.190;2023-03-12T05:59:54;17.65;;;5.22;;
24631;SDS011;59977;48.782;9.190;2023-03-12T06:02:20;16.27;;;5.75;;
24631;SDS011;59977;48.782;9.190;2023-03-12T06:04:46;16.10;;;5.22;;
24631;SDS011;59977;48.782;9.190;2023-03-12T06:07:11;14.57;;;5.55;;
24631;SDS011;59977;48.782;9.190;2023-03-12T06:09:37;10.68;;;4.93;;
24631;SDS011;59977;48.782;9.190;2023-03-12T06:12:04;14.20;;;5.50;;
24631;SDS011;59977;48.782;9.190;2023-03-12T06:14:30;15.13;;;5.47;;
24631;SDS011;59977;48.782;9.190;2023-03-12T06:16:56;13.95;;;5.60;;
24631;SDS011;59977;48.782;9.190;2023-03-12T06:19:22;15.88;;;5.50;;
24631;SDS011;59977;48.782;9.190;2023-03-12T06:21:47;15.05;;;5.05;;
24631;SDS011;59977;48.782;9.190;2023-03-12T06:24:13;14.88;;;5.25;;
24631;SDS011;59977;48.782;9.190;2023-03-12T06:26:39;16.10;;;5.35;;
24631;SDS011;59977;48.782;9.190;2023-03-12T06:29:06;13.02;;;5.80;;
24631;SDS011;59977;48.782;9.190;2023-03-12T06:31:32;11.90;;;5.20;;
24631;SDS011;59977;48.782;9.190;2023-03-12T06:33:58;20.33;;;5.88;;
24631;SDS011;59977;48.782;9.190;2023-03-12T06:36:23;12.55;;;5.75;;
24631;SDS011;59977;48.782;9.190;2023-03-12T06:38:50;16.92;;;5.90;;
24631;SDS011;59977;48.782;9.190;2023-03-12T06:41:16;14.10;;;6.03;;
24631;SDS011;59977;48.782;9.190;2023-03-12T06:43:43;18.02;;;6.88;;
24631;SDS011;59977;48.782;9.190;2023-03-12T06:46:14;16.00;;;6.80;;
24631;SDS011;59977;48.782;9.190;2023-03-12T06:48:42;13.88;;;6.30;;
24631;SDS011;59977;48.782;9.190;2023-03-12T06:51:11;14.00;;;6.82;;
24631;SDS011;59977;48.782;9.190;2023-03-12T06:53:37;18.80;;;6.25;;
24631;SDS011;59977;48.782;9.190;2023-03-12T06:56:04;23.55;;;6.13;;
24631;SDS011;59977;48.782;9.190;2023-03-12T06:58:30;13.52;;;5.70;;
24631;SDS011;59977;48.782;9.190;2023-03-12T07:00:56;15.70;;;5.38;;
24631;SDS011;59977;48.782;9.190;2023-03-12T07:03:22;11.65;;;5.25;;
24631;SDS011;59977;48.782;9.190;2023-03-12T07:05:48;10.85;;;5.30;;
24631;SDS011;59977;48.782;9.190;2023-03-12T07:08:15;14.63;;;5.47;;
24631;SDS011;59977;48.782;9.190;2023-03-12T07:10:41;17.50;;;5.18;;
24631;SDS011;59977;48.782;9.190;2023-03-12T07:13:07;11.05;;;5.18;;
24631;SDS011;59977;48.782;9.190;2023-03-12T07:15:33;10.35;;;5.43;;
24631;SDS011;59977;48.782;9.190;2023-03-12T07:17:59;13.80;;;5.07;;
24631;SDS011;59977;48.782;9.190;2023-03-12T07:20:26;18.63;;;5.38;;
24631;SDS011;59977;48.782;9.190;2023-03-12T07:22:52;12.45;;;5.32;;
24631;SDS011;59977;48.782;9.190;2023-03-12T07:25:17;8.98;;;5.35;;
24631;SDS011;59977;48.782;9.190;2023-03-12T07:27:43;15.10;;;5.60;;
24631;SDS011;59977;48.782;9.190;2023-03-12T07:30:09;13.75;;;5.20;;
24631;SDS011;59977;48.782;9.190;2023-03-12T07:32:35;12.98;;;4.53;;
24631;SDS011;59977;48.782;9.190;2023-03-12T07:35:02;11.35;;;5.78;;
24631;SDS011;59977;48.782;9.190;2023-03-12T07:40:00;10.95;;;5.10;;
24631;SDS011;59977;48.782;9.190;2023-03-12T07:42:31;16.88;;;5.53;;
24631;SDS011;59977;48.782;9.190;2023-03-12T07:44:57;12.02;;;4.80;;
24631;SDS011;59977;48.782;9.190;2023-03-12T07:47:23;11.35;;;4.80;;
24631;SDS011;59977;48.782;9.190;2023-03-12T07:49:49;11.27;;;4.90;;
24631;SDS011;59977;48.782;9.190;2023-03-12T07:52:15;15.15;;;4.85;;
24631;SDS011;59977;48.782;9.190;2023-03-12T07:54:42;10.30;;;4.30;;
24631;SDS011;59977;48.782;9.190;2023-03-12T07:57:08;12.13;;;4.50;;
24631;SDS011;59977;48.782;9.190;2023-03-12T07:59:34;8.98;;;4.13;;
24631;SDS011;59977;48.782;9.190;2023-03-12T08:02:00;9.73;;;4.22;;
24631;SDS011;59977;48.782;9.190;2023-03-12T08:04:26;10.02;;;4.53;;
24631;SDS011;59977;48.782;9.190;2023-03-12T08:06:52;10.68;;;4.80;;
24631;SDS011;59977;48.782;9.190;2023-03-12T08:09:18;9.32;;;3.85;;
24631;SDS011;59977;48.782;9.190;2023-03-12T08:11:44;12.77;;;4.63;;
24631;SDS011;59977;48.782;9.190;2023-03-12T08:14:10;10.60;;;4.25;;
24631;SDS011;59977;48.782;9.190;2023-03-12T08:16:36;11.05;;;4.95;;
24631;SDS011;59977;48.782;9.190;2023-03-12T08:19:01;8.60;;;4.47;;
24631;SDS011;59977;48.782;9.190;2023-03-12T08:21:27;9.70;;;4.40;;
24631;SDS011;59977;48.782;9.190;2023-03-12T08:23:53;6.63;;;3.67;;
24631;SDS011;59977;48.782;9.190;2023-03-12T08:26:19;10.23;;;4.38;;
24631;SDS011;59977;48.782;9.190;2023-03-12T08:28:45;8.77;;;3.97;;
24631;SDS011;59977;48.782;9.190;2023-03-12T08:31:11;13.98;;;4.47;;
24631;SDS011;59977;48.782;9.190;2023-03-12T08:33:37;9.05;;;4.47;;
24631;SDS011;59977;48.782;9.190;2023-03-12T08:36:07;9.23;;;4.68;;
24631;SDS011;59977;48.782;9.190;2023-03-12T08:38:33;13.23;;;4.88;;
24631;SDS011;59977;48.782;9.190;2023-03-12T08:40:59;11.73;;;5.03;;
24631;SDS011;59977;48.782;9.190;2023-03-12T08:43:26;11.07;;;4.88;;
24631;SDS011;59977;48.782;9.190;2023-03-12T08:45:56;11.90;;;5.47;;
24631;SDS011;59977;48.782;9.190;2023-03-12T08:48:22;11.35;;;4.93;;
24631;SDS011;59977;48.782;9.190;2023-03-12T08:50:49;12.95;;;4.30;;
24631;SDS011;59977;48.782;9.190;2023-03-12T08:53:15;12.10;;;4.90;;
24631;SDS011;59977;48.782;9.190;2023-03-12T08:55:41;13.10;;;5.13;;
24631;SDS011;59977;48.782;9.190;2023-03-12T08:58:07;11.20;;;5.07;;
24631;SDS011;59977;48.782;9.190;2023-03-12T09:00:33;14.93;;;5.47;;
24631;SDS011;59977;48.782;9.190;2023-03-12T09:02:59;12.73;;;5.30;;
24631;SDS011;59977;48.782;9.190;2023-03-12T09:05:26;13.05;;;5.28;;
24631;SDS011;59977;48.782;9.190;2023-03-12T09:07:55;10.27;;;5.15;;
24631;SDS011;59977;48.782;9.190;2023-03-12T09:10:21;12.38;;;5.60;;
24631;SDS011;59977;48.782;9.190;2023-03-12T09:12:47;12.63;;;5.95;;
24631;SDS011;59977;48.782;9.190;2023-03-12T09:15:13;12.68;;;6.07;;
24631;SDS011;59977;48.782;9.190;2023-03-12T09:17:39;11.02;;;5.82;;
24631;SDS011;59977;48.782;9.190;2023-03-12T09:20:06;15.82;;;6.50;;
24631;SDS011;59977;48.782;9.190;2023-03-12T09:22:33;12.00;;;6.18;;
24631;SDS011;59977;48.782;9.190;2023-03-12T09:25:01;12.98;;;5.70;;
24631;SDS011;59977;48.782;9.190;2023-03-12T09:27:27;12.25;;;6.00;;
24631;SDS011;59977;48.782;9.190;2023-03-12T09:29:53;12.60;;;5.90;;
24631;SDS011;59977;48.782;9.190;2023-03-12T09:32:19;11.88;;;5.85;;
24631;SDS011;59977;48.782;9.190;2023-03-12T09:34:45;15.02;;;5.15;;
24631;SDS011;59977;48.782;9.190;2023-03-12T09:37:11;13.02;;;6.00;;
24631;SDS011;59977;48.782;9.190;2023-03-12T09:39:37;12.48;;;5.90;;
24631;SDS011;59977;48.782;9.190;2023-03-12T09:42:03;10.25;;;6.80;;
24631;SDS011;59977;48.782;9.190;2023-03-12T09:44:40;14.95;;;5.43;;
24631;SDS011;59977;48.782;9.190;2023-03-12T09:47:10;13.55;;;6.55;;
24631;SDS011;59977;48.782;9.190;2023-03-12T09:50:22;13.02;;;6.25;;
24631;SDS011;59977;48.782;9.190;2023-03-12T09:53:16;17.27;;;6.72;;
24631;SDS011;59977;48.782;9.190;2023-03-12T09:55:44;13.27;;;6.72;;
24631;SDS011;59977;48.782;9.190;2023-03-12T09:58:14;12.80;;;6.78;;
24631;SDS011;59977;48.782;9.190;2023-03-12T10:00:46;15.68;;;7.07;;
24631;SDS011;59977;48.782;9.190;2023-03-12T10:03:27;13.18;;;6.80;;
24631;SDS011;59977;48.782;9.190;2023-03-12T10:06:14;10.25;;;6.13;;
24631;SDS011;59977;48.782;9.190;2023-03-12T10:25:19;11.27;;;6.63;;
24631;SDS011;59977;48.782;9.190;2023-03-12T10:27:51;15.80;;;6.22;;
24631;SDS011;59977;48.782;9.190;2023-03-12T10:30:20;17.05;;;6.03;;
24631;SDS011;59977;48.782;9.190;2023-03-12T10:32:50;12.40;;;5.93;;
24631;SDS011;59977;48.782;9.190;2023-03-12T10:35:23;10.30;;;5.72;;
24631;SDS011;59977;48.782;9.190;2023-03-12T10:37:54;13.27;;;6.32;;
24631;SDS011;59977;48.782;9.190;2023-03-12T10:40:24;12.63;;;5.80;;
24631;SDS011;59977;48.782;9.190;2023-03-12T10:42:51;13.80;;;5.97;;
24631;SDS011;59977;48.782;9.190;2023-03-12T10:45:30;10.13;;;4.95;;
24631;SDS011;59977;48.782;9.190;2023-03-12T10:48:03;10.43;;;3.72;;
24631;SDS011;59977;48.782;9.190;2023-03-12T10:50:33;8.05;;;4.30;;
24631;SDS011;59977;48.782;9.190;2023-03-12T10:55:57;5.50;;;1.90;;
24631;SDS011;59977;48.782;9.190;2023-03-12T11:01:19;2.92;;;1.70;;
24631;SDS011;59977;48.782;9.190;2023-03-12T11:03:50;8.77;;;1.85;;
24631;SDS011;59977;48.782;9.190;2023-03-12T11:06:21;4.47;;;1.88;;
24631;SDS011;59977;48.782;9.190;2023-03-12T11:09:02;4.15;;;1.77;;
24631;SDS011;59977;48.782;9.190;2023-03-12T11:11:34;3.35;;;2.03;;
24631;SDS011;59977;48.782;9.190;2023-03-12T11:16:52;3.45;;;1.70;;
24631;SDS011;59977;48.782;9.190;2023-03-12T11:19:29;4.63;;;2.10;;
24631;SDS011;59977;48.782;9.190;2023-03-12T11:22:05;5.07;;;1.63;;
24631;SDS011;59977;48.782;9.190;2023-03-12T11:24:33;3.60;;;1.73;;
24631;SDS011;59977;48.782;9.190;2023-03-12T11:29:35;3.67;;;1.40;;
24631;SDS011;59977;48.782;9.190;2023-03-12T11:35:00;3.65;;;1.30;;
24631;SDS011;59977;48.782;9.190;2023-03-12T11:37:30;3.85;;;1.50;;
24631;SDS011;59977;48.782;9.190;2023-03-12T11:43:08;1.35;;;1.05;;
24631;SDS011;59977;48.782;9.190;2023-03-12T11:48:20;2.65;;;0.90;;
24631;SDS011;59977;48.782;9.190;2023-03-12T11:59:10;5.13;;;1.17;;
24631;SDS011;59977;48.782;9.190;2023-03-12T12:02:10;2.40;;;1.10;;
24631;SDS011;59977;48.782;9.190;2023-03-12T12:13:18;3.10;;;0.95;;
24631;SDS011;59977;48.782;9.190;2023-03-12T12:18:51;2.75;;;0.90;;
24631;SDS011;59977;48.782;9.190;2023-03-12T12:21:57;3.30;;;0.80;;
24631;SDS011;59977;48.782;9.190;2023-03-12T12:27:35;4.45;;;1.30;;
24631;SDS011;59977;48.782;9.190;2023-03-12T12:30:21;5.05;;;1.17;;
24631;SDS011;59977;48.782;9.190;2023-03-12T12:33:30;3.25;;;1.15;;
24631;SDS011;59977;48.782;9.190;2023-03-12T12:36:16;3.10;;;1.20;;
24631;SDS011;59977;48.782;9.190;2023-03-12T12:38:55;7.10;;;1.70;;
24631;SDS011;59977;48.782;9.190;2023-03-12T12:41:26;5.32;;;1.10;;
24631;SDS011;59977;48.782;9.190;2023-03-12T12:44:00;4.55;;;1.85;;
24631;SDS011;59977;48.782;9.190;2023-03-12T12:46:35;7.53;;;1.80;;
24631;SDS011;59977;48.782;9.190;2023-03-12T12:49:11;5.63;;;1.50;;
24631;SDS011;59977;48.782;9.190;2023-03-12T12:51:49;6.57;;;1.58;;
24631;SDS011;59977;48.782;9.190;2023-03-12T12:54:23;5.65;;;1.45;;
24631;SDS011;59977;48.782;9.190;2023-03-12T13:03:18;5.97;;;1.50;;
24631;SDS011;59977;48.782;9.190;2023-03-12T13:05:53;6.78;;;1.60;;
24631;SDS011;59977;48.782;9.190;2023-03-12T13:08:33;5.88;;;1.73;;
24631;SDS011;59977;48.782;9.190;2023-03-12T13:11:25;4.80;;;1.52;;
24631;SDS011;59977;48.782;9.190;2023-03-12T13:16:35;5.47;;;2.08;;
24631;SDS011;59977;48.782;9.190;2023-03-12T13:24:24;6.93;;;1.67;;
24631;SDS011;59977;48.782;9.190;2023-03-12T13:32:01;10.15;;;2.03;;
24631;SDS011;59977;48.782;9.190;2023-03-12T13:34:29;5.03;;;1.35;;
24631;SDS011;59977;48.782;9.190;2023-03-12T13:36:57;6.45;;;1.73;;
24631;SDS011;59977;48.782;9.190;2023-03-12T13:39:29;7.80;;;1.55;;
24631;SDS011;59977;48.782;9.190;2023-03-12T13:41:58;5.28;;;1.55;;
24631;SDS011;59977;48.782;9.190;2023-03-12T13:47:00;5.97;;;1.88;;
24631;SDS011;59977;48.782;9.190;2023-03-12T13:49:34;6.70;;;1.95;;
24631;SDS011;59977;48.782;9.190;2023-03-12T13:52:14;7.50;;;1.70;;
24631;SDS011;59977;48.782;9.190;2023-03-12T13:54:45;8.50;;;1.90;;
24631;SDS011;59977;48.782;9.190;2023-03-12T13:57:26;6.93;;;1.75;;
24631;SDS011;59977;48.782;9.190;2023-03-12T14:02:59;6.70;;;1.52;;
24631;SDS011;59977;48.782;9.190;2023-03-12T14:05:52;7.70;;;1.65;;
24631;SDS011;59977;48.782;9.190;2023-03-12T14:17:25;9.15;;;1.65;;
24631;SDS011;59977;48.782;9.190;2023-03-12T14:19:59;6.85;;;1.80;;
24631;SDS011;59977;48.782;9.190;2023-03-12T14:22:35;6.33;;;1.47;;
24631;SDS011;59977;48.782;9.190;2023-03-12T14:27:38;4.93;;;1.27;;
24631;SDS011;59977;48.782;9.190;2023-03-12T14:30:23;5.07;;;1.42;;
24631;SDS011;59977;48.782;9.190;2023-03-12T14:35:32;9.38;;;1.88;;
24631;SDS011;59977;48.782;9.190;2023-03-12T14:38:16;9.10;;;1.75;;
24631;SDS011;59977;48.782;9.190;2023-03-12T14:41:52;8.57;;;2.10;;
24631;SDS011;59977;48.782;9.190;2023-03-12T14:43:50;6.22;;;1.70;;
24631;SDS011;59977;48.782;9.190;2023-03-12T14:46:18;5.10;;;1.70;;
24631;SDS011;59977;48.782;9.190;2023-03-12T14:48:49;7.40;;;1.77;;
24631;SDS011;59977;48.782;9.190;2023-03-12T14:51:25;4.97;;;1.42;;
24631;SDS011;59977;48.782;9.190;2023-03-12T14:54:01;8.37;;;2.00;;
24631;SDS011;59977;48.782;9.190;2023-03-12T14:56:49;5.68;;;1.60;;
24631;SDS011;59977;48.782;9.190;2023-03-12T14:59:28;5.53;;;1.90;;
24631;SDS011;59977;48.782;9.190;2023-03-12T15:02:11;10.43;;;1.95;;
24631;SDS011;59977;48.782;9.190;2023-03-12T15:04:38;6.95;;;1.70;;
24631;SDS011;59977;48.782;9.190;2023-03-12T15:07:05;5.85;;;1.85;;
24631;SDS011;59977;48.782;9.190;2023-03-12T15:09:36;6.65;;;1.63;;
24631;SDS011;59977;48.782;9.190;2023-03-12T15:12:05;5.57;;;1.77;;
24631;SDS011;59977;48.782;9.190;2023-03-12T15:14:41;5.97;;;1.85;;
24631;SDS011;59977;48.782;9.190;2023-03-12T15:17:07;8.55;;;1.63;;
24631;SDS011;59977;48.782;9.190;2023-03-12T15:19:38;4.85;;;1.83;;
24631;SDS011;59977;48.782;9.190;2023-03-12T15:22:06;8.65;;;2.10;;
24631;SDS011;59977;48.782;9.190;2023-03-12T15:24:38;8.65;;;1.67;;
24631;SDS011;59977;48.782;9.190;2023-03-12T15:29:48;4.40;;;1.50;;
24631;SDS011;59977;48.782;9.190;2023-03-12T15:32:15;4.78;;;1.50;;
24631;SDS011;59977;48.782;9.190;2023-03-12T15:34:48;12.55;;;2.10;;
24631;SDS011;59977;48.782;9.190;2023-03-12T15:37:18;7.60;;;1.50;;
24631;SDS011;59977;48.782;9.190;2023-03-12T15:39:56;6.82;;;1.80;;
24631;SDS011;59977;48.782;9.190;2023-03-12T15:42:24;9.32;;;2.13;;
24631;SDS011;59977;48.782;9.190;2023-03-12T15:44:58;9.27;;;2.03;;
24631;SDS011;59977;48.782;9.190;2023-03-12T15:47:30;10.25;;;1.73;;
24631;SDS011;59977;48.782;9.190;2023-03-12T15:49:59;7.72;;;2.17;;
24631;SDS011;59977;48.782;9.190;2023-03-12T15:52:33;11.20;;;2.30;;
24631;SDS011;59977;48.782;9.190;2023-03-12T15:57:46;11.25;;;2.33;;
24631;SDS011;59977;48.782;9.190;2023-03-12T16:03:16;10.90;;;2.20;;
24631;SDS011;59977;48.782;9.190;2023-03-12T16:05:43;11.40;;;2.75;;
24631;SDS011;59977;48.782;9.190;2023-03-12T16:08:14;9.50;;;2.17;;
24631;SDS011;59977;48.782;9.190;2023-03-12T16:10:50;12.20;;;2.33;;
24631;SDS011;59977;48.782;9.190;2023-03-12T16:13:19;10.48;;;2.80;;
24631;SDS011;59977;48.782;9.190;2023-03-12T16:15:50;10.63;;;2.10;;
24631;SDS011;59977;48.782;9.190;2023-03-12T16:18:17;12.25;;;2.80;;
24631;SDS011;59977;48.782;9.190;2023-03-12T16:20:44;11.77;;;2.60;;
24631;SDS011;59977;48.782;9.190;2023-03-12T16:23:11;12.48;;;2.75;;
24631;SDS011;59977;48.782;9.190;2023-03-12T16:25:38;13.38;;;2.53;;
24631;SDS011;59977;48.782;9.190;2023-03-12T16:28:11;12.18;;;2.50;;
24631;SDS011;59977;48.782;9.190;2023-03-12T16:30:40;14.52;;;2.55;;
24631;SDS011;59977;48.782;9.190;2023-03-12T16:33:06;11.73;;;2.90;;
24631;SDS011;59977;48.782;9.190;2023-03-12T16:35:32;13.10;;;2.85;;
24631;SDS011;59977;48.782;9.190;2023-03-12T16:38:01;12.07;;;2.53;;
24631;SDS011;59977;48.782;9.190;2023-03-12T16:40:27;12.25;;;2.50;;